createdAt,value
2018-12-01T00:00:42.050Z,0
2018-12-01T00:01:42.037Z,0
2018-12-01T00:02:41.899Z,0
2018-12-01T00:03:41.956Z,0
2018-12-01T00:04:41.973Z,0
2018-12-01T00:05:42.032Z,0
2018-12-01T00:06:41.955Z,0
2018-12-01T00:07:41.950Z,0
2018-12-01T00:08:41.972Z,0
2018-12-01T00:09:41.953Z,0
2018-12-01T00:10:41.960Z,0
2018-12-01T00:11:41.971Z,0
2018-12-01T00:12:42.011Z,0
2018-12-01T00:13:42.023Z,0
2018-12-01T00:14:41.977Z,6.6
2018-12-01T00:15:41.993Z,6.6
2018-12-01T00:16:42.032Z,9.5
2018-12-01T00:17:41.991Z,21.3
2018-12-01T00:18:42.070Z,9.5
2018-12-01T00:19:41.964Z,15.4
2018-12-01T00:20:42.005Z,24.3
2018-12-01T00:21:42.066Z,24.3
2018-12-01T00:22:42.057Z,9.5
2018-12-01T00:23:42.010Z,24.3
2018-12-01T00:24:41.971Z,3.9
2018-12-01T00:25:41.951Z,21.3
2018-12-01T00:26:42.042Z,12.4
2018-12-01T00:27:41.996Z,0
2018-12-01T00:28:42.001Z,1.8
2018-12-01T00:29:42.010Z,6.6
2018-12-01T00:30:41.948Z,6.6
2018-12-01T00:31:41.994Z,12.4
2018-12-01T00:32:41.999Z,3.9
2018-12-01T00:33:42.004Z,3.9
2018-12-01T00:34:42.056Z,6.6
2018-12-01T00:35:41.947Z,12.4
2018-12-01T00:36:41.981Z,9.5
2018-12-01T00:37:41.988Z,9.5
2018-12-01T00:38:42.072Z,0
2018-12-01T00:39:41.983Z,1.8
2018-12-01T00:40:42.013Z,3.9
2018-12-01T00:41:41.936Z,0
2018-12-01T00:42:41.994Z,3.9
2018-12-01T00:43:42.054Z,0
2018-12-01T00:44:42.317Z,9.5
2018-12-01T00:45:41.997Z,6.6
2018-12-01T00:46:41.940Z,3.9
2018-12-01T00:47:42.027Z,0
2018-12-01T00:48:41.978Z,0
2018-12-01T00:49:42.055Z,0
2018-12-01T00:50:42.079Z,9.5
2018-12-01T00:51:41.948Z,12.4
2018-12-01T00:52:42.052Z,9.5
2018-12-01T00:53:41.991Z,1.8
2018-12-01T00:54:41.986Z,0
2018-12-01T00:55:41.973Z,0
2018-12-01T00:56:41.981Z,6.6
2018-12-01T00:57:41.996Z,0
2018-12-01T00:58:41.980Z,3.9
2018-12-01T00:59:41.987Z,1.8
2018-12-01T01:00:41.971Z,3.9
2018-12-01T01:01:42.158Z,12.4
2018-12-01T01:02:41.956Z,3.9
2018-12-01T01:03:41.931Z,15.4
2018-12-01T01:04:41.971Z,6.6
2018-12-01T01:05:41.978Z,6.6
2018-12-01T01:06:42.038Z,3.9
2018-12-01T01:07:41.977Z,6.6
2018-12-01T01:08:41.919Z,12.4
2018-12-01T01:09:41.981Z,3.9
2018-12-01T01:10:41.986Z,18.3
2018-12-01T01:11:42.030Z,15.4
2018-12-01T01:12:41.974Z,24.3
2018-12-01T01:13:41.942Z,3.9
2018-12-01T01:14:41.981Z,12.4
2018-12-01T01:15:41.998Z,1.8
2018-12-01T01:16:42.000Z,15.4
2018-12-01T01:17:41.974Z,9.5
2018-12-01T01:18:41.978Z,3.9
2018-12-01T01:19:42.100Z,9.5
2018-12-01T01:20:41.981Z,6.6
2018-12-01T01:21:41.962Z,12.4
2018-12-01T01:22:43.220Z,6.6
2018-12-01T01:23:41.972Z,3.9
2018-12-01T01:24:42.082Z,0
2018-12-01T01:25:41.925Z,3.9
2018-12-01T01:26:41.957Z,3.9
2018-12-01T01:27:41.973Z,1.8
2018-12-01T01:28:42.025Z,3.9
2018-12-01T01:29:42.000Z,3.9
2018-12-01T01:30:41.924Z,9.5
2018-12-01T01:31:41.956Z,9.5
2018-12-01T01:32:41.960Z,6.6
2018-12-01T01:33:42.013Z,6.6
2018-12-01T01:34:42.018Z,15.4
2018-12-01T01:35:41.905Z,3.9
2018-12-01T01:36:41.951Z,6.6
2018-12-01T01:37:42.016Z,1.8
2018-12-01T01:38:42.009Z,3.9
2018-12-01T01:39:42.241Z,12.4
2018-12-01T01:40:41.925Z,24.3
2018-12-01T01:41:41.915Z,21.3
2018-12-01T01:42:41.962Z,18.3
2018-12-01T01:43:41.952Z,9.5
2018-12-01T01:44:41.957Z,15.4
2018-12-01T01:45:41.956Z,12.4
2018-12-01T01:46:41.958Z,12.4
2018-12-01T01:47:41.962Z,6.6
2018-12-01T01:48:41.952Z,3.9
2018-12-01T01:49:42.051Z,12.4
2018-12-01T01:50:41.952Z,9.5
2018-12-01T01:51:41.910Z,9.5
2018-12-01T01:52:41.996Z,15.4
2018-12-01T01:53:41.958Z,21.3
2018-12-01T01:54:41.969Z,15.4
2018-12-01T01:55:42.029Z,21.3
2018-12-01T01:56:41.950Z,15.4
2018-12-01T01:57:41.883Z,15.4
2018-12-01T01:58:41.968Z,12.4
2018-12-01T01:59:41.955Z,3.9
2018-12-01T02:00:42.022Z,6.6
2018-12-01T02:01:41.940Z,9.5
2018-12-01T02:02:41.909Z,12.4
2018-12-01T02:03:41.964Z,9.5
2018-12-01T02:04:42.012Z,6.6
2018-12-01T02:05:44.033Z,15.4
2018-12-01T02:06:41.960Z,9.5
2018-12-01T02:07:42.143Z,9.5
2018-12-01T02:08:41.895Z,3.9
2018-12-01T02:09:41.961Z,1.8
2018-12-01T02:10:41.954Z,3.9
2018-12-01T02:11:41.939Z,1.8
2018-12-01T02:12:42.007Z,3.9
2018-12-01T02:13:41.896Z,3.9
2018-12-01T02:14:41.928Z,6.6
2018-12-01T02:15:42.020Z,6.6
2018-12-01T02:16:41.955Z,3.9
2018-12-01T02:17:41.967Z,6.6
2018-12-01T02:18:41.945Z,6.6
2018-12-01T02:19:41.892Z,3.9
2018-12-01T02:20:42.020Z,9.5
2018-12-01T02:21:41.939Z,1.8
2018-12-01T02:22:41.948Z,12.4
2018-12-01T02:23:41.945Z,12.4
2018-12-01T02:24:41.881Z,9.5
2018-12-01T02:25:42.028Z,18.3
2018-12-01T02:26:41.988Z,15.4
2018-12-01T02:27:41.952Z,15.4
2018-12-01T02:28:41.933Z,15.4
2018-12-01T02:29:41.937Z,15.4
2018-12-01T02:30:41.932Z,15.4
2018-12-01T02:31:42.009Z,24.3
2018-12-01T02:32:41.940Z,18.3
2018-12-01T02:33:41.942Z,24.3
2018-12-01T02:34:41.934Z,18.3
2018-12-01T02:35:41.945Z,21.3
2018-12-01T02:36:41.957Z,12.4
2018-12-01T02:37:41.960Z,12.4
2018-12-01T02:38:42.052Z,18.3
2018-12-01T02:39:41.939Z,12.4
2018-12-01T02:40:41.884Z,12.4
2018-12-01T02:41:41.883Z,6.6
2018-12-01T02:42:41.937Z,9.5
2018-12-01T02:43:41.975Z,0
2018-12-01T02:44:41.929Z,0
2018-12-01T02:45:41.951Z,1.8
2018-12-01T02:46:41.885Z,0
2018-12-01T02:47:41.984Z,3.9
2018-12-01T02:48:41.933Z,0
2018-12-01T02:49:41.916Z,0
2018-12-01T02:50:42.051Z,0
2018-12-01T02:51:41.882Z,1.8
2018-12-01T02:52:41.995Z,6.6
2018-12-01T02:53:41.911Z,0
2018-12-01T02:54:41.922Z,6.6
2018-12-01T02:55:41.983Z,9.5
2018-12-01T02:56:41.940Z,0
2018-12-01T02:57:41.860Z,3.9
2018-12-01T02:58:41.973Z,1.8
2018-12-01T02:59:41.928Z,21.3
2018-12-01T03:00:41.999Z,1.8
2018-12-01T03:01:41.927Z,9.5
2018-12-01T03:02:41.887Z,3.9
2018-12-01T03:03:41.967Z,12.4
2018-12-01T03:04:41.919Z,0
2018-12-01T03:05:41.914Z,6.6
2018-12-01T03:06:41.924Z,1.8
2018-12-01T03:07:41.919Z,9.5
2018-12-01T03:08:41.944Z,1.8
2018-12-01T03:09:41.916Z,3.9
2018-12-01T03:10:41.985Z,0
2018-12-01T03:11:41.922Z,24.3
2018-12-01T03:12:41.921Z,15.4
2018-12-01T03:13:41.934Z,18.3
2018-12-01T03:14:41.914Z,1.8
2018-12-01T03:15:41.917Z,3.9
2018-12-01T03:16:41.972Z,18.3
2018-12-01T03:17:41.930Z,12.4
2018-12-01T03:18:41.992Z,12.4
2018-12-01T03:19:41.925Z,0
2018-12-01T03:20:41.918Z,1.8
2018-12-01T03:21:41.917Z,12.4
2018-12-01T03:22:41.917Z,1.8
2018-12-01T03:23:41.980Z,9.5
2018-12-01T03:24:41.860Z,18.3
2018-12-01T03:25:41.898Z,6.6
2018-12-01T03:26:41.917Z,1.8
2018-12-01T03:27:41.902Z,18.3
2018-12-01T03:28:41.964Z,1.8
2018-12-01T03:29:41.903Z,3.9
2018-12-01T03:30:41.869Z,0
2018-12-01T03:31:42.005Z,0
2018-12-01T03:32:41.905Z,6.6
2018-12-01T03:33:41.888Z,0
2018-12-01T03:34:41.895Z,6.6
2018-12-01T03:35:41.898Z,1.8
2018-12-01T03:36:41.891Z,9.5
2018-12-01T03:37:41.956Z,6.6
2018-12-01T03:38:41.906Z,15.4
2018-12-01T03:39:41.891Z,9.5
2018-12-01T03:40:41.931Z,0
2018-12-01T03:41:41.840Z,18.3
2018-12-01T03:42:41.903Z,6.6
2018-12-01T03:43:41.905Z,6.6
2018-12-01T03:44:41.887Z,15.4
2018-12-01T03:45:42.036Z,3.9
2018-12-01T03:46:41.846Z,1.8
2018-12-01T03:47:41.899Z,3.9
2018-12-01T03:48:41.907Z,0
2018-12-01T03:49:41.901Z,3.9
2018-12-01T03:50:41.968Z,3.9
2018-12-01T03:51:41.841Z,9.5
2018-12-01T03:52:41.950Z,0
2018-12-01T03:53:41.881Z,1.8
2018-12-01T03:54:41.881Z,0
2018-12-01T03:55:41.947Z,1.8
2018-12-01T03:56:41.881Z,6.6
2018-12-01T03:57:41.830Z,0
2018-12-01T03:58:41.941Z,3.9
2018-12-01T03:59:41.873Z,9.5
2018-12-01T04:00:41.881Z,15.4
2018-12-01T04:01:41.890Z,12.4
2018-12-01T04:02:43.684Z,3.9
2018-12-01T04:03:41.947Z,12.4
2018-12-01T04:04:41.898Z,6.6
2018-12-01T04:05:41.895Z,9.5
2018-12-01T04:06:41.905Z,1.8
2018-12-01T04:07:41.890Z,0
2018-12-01T04:08:41.886Z,15.4
2018-12-01T04:09:41.895Z,0
2018-12-01T04:10:41.946Z,9.5
2018-12-01T04:11:41.881Z,15.4
2018-12-01T04:12:41.956Z,9.5
2018-12-01T04:13:41.830Z,9.5
2018-12-01T04:14:41.905Z,1.8
2018-12-01T04:15:41.870Z,3.9
2018-12-01T04:16:41.874Z,1.8
2018-12-01T04:17:41.949Z,0
2018-12-01T04:18:41.901Z,0
2018-12-01T04:19:41.831Z,0
2018-12-01T04:20:41.940Z,0
2018-12-01T04:21:41.869Z,0
2018-12-01T04:22:41.874Z,0
2018-12-01T04:23:41.870Z,0
2018-12-01T04:24:41.820Z,0
2018-12-01T04:25:41.938Z,0
2018-12-01T04:26:41.949Z,0
2018-12-01T04:27:41.865Z,6.6
2018-12-01T04:28:41.871Z,6.6
2018-12-01T04:29:41.838Z,6.6
2018-12-01T04:30:41.862Z,1.8
2018-12-01T04:31:41.930Z,0
2018-12-01T04:32:41.925Z,0
2018-12-01T04:33:41.940Z,0
2018-12-01T04:34:41.873Z,0
2018-12-01T04:35:41.865Z,0
2018-12-01T04:36:41.888Z,0
2018-12-01T04:37:41.880Z,0
2018-12-01T04:38:41.862Z,0
2018-12-01T04:39:41.935Z,0
2018-12-01T04:40:41.830Z,0
2018-12-01T04:41:41.939Z,0
2018-12-01T04:42:41.857Z,0
2018-12-01T04:43:41.874Z,9.5
2018-12-01T04:44:41.865Z,3.9
2018-12-01T04:45:41.855Z,0
2018-12-01T04:46:41.875Z,0
2018-12-01T04:47:41.927Z,0
2018-12-01T04:48:41.867Z,0
2018-12-01T04:49:41.847Z,1.8
2018-12-01T04:50:41.858Z,0
2018-12-01T04:51:41.821Z,0
2018-12-01T04:52:41.948Z,0
2018-12-01T04:53:41.860Z,0
2018-12-01T04:54:41.854Z,0
2018-12-01T04:55:41.912Z,0
2018-12-01T04:56:41.852Z,0
2018-12-01T04:57:41.873Z,0
2018-12-01T04:58:41.936Z,0
2018-12-01T04:59:41.860Z,0
2018-12-01T05:00:41.867Z,0
2018-12-01T05:01:41.854Z,0
2018-12-01T05:02:41.868Z,0
2018-12-01T05:03:41.846Z,0
2018-12-01T05:04:41.864Z,3.9
2018-12-01T05:05:41.930Z,3.9
2018-12-01T05:06:41.844Z,6.6
2018-12-01T05:07:42.743Z,1.8
2018-12-01T05:08:41.797Z,1.8
2018-12-01T05:09:41.851Z,0
2018-12-01T05:10:41.844Z,0
2018-12-01T05:11:41.898Z,1.8
2018-12-01T05:12:41.841Z,6.6
2018-12-01T05:13:41.817Z,9.5
2018-12-01T05:14:41.847Z,0
2018-12-01T05:15:41.916Z,0
2018-12-01T05:16:41.867Z,6.6
2018-12-01T05:17:41.859Z,1.8
2018-12-01T05:18:41.821Z,0
2018-12-01T05:19:41.838Z,0
2018-12-01T05:20:41.959Z,1.8
2018-12-01T05:21:41.833Z,15.4
2018-12-01T05:22:41.859Z,15.4
2018-12-01T05:23:41.845Z,9.5
2018-12-01T05:24:41.888Z,12.4
2018-12-01T05:25:41.841Z,6.6
2018-12-01T05:26:42.544Z,6.6
2018-12-01T05:27:41.845Z,15.4
2018-12-01T05:28:41.849Z,24.3
2018-12-01T05:29:41.860Z,15.4
2018-12-01T05:30:41.803Z,9.5
2018-12-01T05:31:41.899Z,15.4
2018-12-01T05:32:41.856Z,9.5
2018-12-01T05:33:41.908Z,6.6
2018-12-01T05:34:41.831Z,15.4
2018-12-01T05:35:41.865Z,12.4
2018-12-01T05:36:41.836Z,12.4
2018-12-01T05:37:41.848Z,15.4
2018-12-01T05:38:41.831Z,9.5
2018-12-01T05:39:41.858Z,15.4
2018-12-01T05:40:41.922Z,6.6
2018-12-01T05:41:42.728Z,3.9
2018-12-01T05:42:41.833Z,18.3
2018-12-01T05:43:41.847Z,12.4
2018-12-01T05:44:41.849Z,9.5
2018-12-01T05:45:41.902Z,12.4
2018-12-01T05:46:41.792Z,1.8
2018-12-01T05:47:41.908Z,6.6
2018-12-01T05:48:41.843Z,6.6
2018-12-01T05:49:41.926Z,9.5
2018-12-01T05:50:41.786Z,12.4
2018-12-01T05:51:41.871Z,6.6
2018-12-01T05:52:41.785Z,1.8
2018-12-01T05:53:41.823Z,6.6
2018-12-01T05:54:41.899Z,12.4
2018-12-01T05:55:41.842Z,3.9
2018-12-01T05:56:41.824Z,1.8
2018-12-01T05:57:41.784Z,15.4
2018-12-01T05:58:41.897Z,24.3
2018-12-01T05:59:41.830Z,18.3
2018-12-01T06:00:41.815Z,9.5
2018-12-01T06:01:41.826Z,6.6
2018-12-01T06:02:41.779Z,0
2018-12-01T06:03:41.935Z,0
2018-12-01T06:04:42.190Z,3.9
2018-12-01T06:05:41.775Z,1.8
2018-12-01T06:06:41.814Z,0
2018-12-01T06:07:41.828Z,0
2018-12-01T06:08:41.851Z,1.8
2018-12-01T06:09:41.846Z,0
2018-12-01T06:10:41.819Z,0
2018-12-01T06:11:41.832Z,0
2018-12-01T06:12:41.824Z,6.6
2018-12-01T06:13:41.853Z,3.9
2018-12-01T06:14:41.882Z,3.9
2018-12-01T06:15:41.897Z,3.9
2018-12-01T06:16:41.879Z,12.4
2018-12-01T06:17:41.804Z,18.3
2018-12-01T06:18:41.795Z,12.4
2018-12-01T06:19:41.822Z,6.6
2018-12-01T06:20:41.839Z,3.9
2018-12-01T06:21:41.825Z,1.8
2018-12-01T06:22:41.917Z,15.4
2018-12-01T06:23:41.821Z,18.3
2018-12-01T06:24:41.772Z,21.3
2018-12-01T06:25:41.824Z,18.3
2018-12-01T06:26:41.816Z,6.6
2018-12-01T06:27:41.870Z,9.5
2018-12-01T06:28:41.808Z,21.3
2018-12-01T06:29:41.778Z,24.3
2018-12-01T06:30:42.005Z,21.3
2018-12-01T06:31:45.804Z,9.5
2018-12-01T06:32:42.084Z,21.3
2018-12-01T06:33:41.990Z,12.4
2018-12-01T06:34:42.004Z,9.5
2018-12-01T06:35:42.038Z,3.9
2018-12-01T06:36:42.189Z,39.3
2018-12-01T06:37:41.974Z,6.6
2018-12-01T06:38:42.064Z,15.4
2018-12-01T06:39:41.955Z,21.3
2018-12-01T06:40:42.085Z,33.3
2018-12-01T06:41:42.039Z,36.3
2018-12-01T06:42:42.146Z,48.3
2018-12-01T06:43:42.071Z,18.3
2018-12-01T06:44:42.138Z,6.6
2018-12-01T06:45:42.100Z,15.4
2018-12-01T06:46:41.902Z,24.3
2018-12-01T06:47:42.204Z,15.4
2018-12-01T06:48:42.030Z,30.3
2018-12-01T06:49:41.985Z,9.5
2018-12-01T06:50:41.955Z,21.3
2018-12-01T06:51:41.974Z,45.3
2018-12-01T06:52:42.078Z,30.3
2018-12-01T06:53:42.249Z,36.3
2018-12-01T06:54:41.987Z,15.4
2018-12-01T06:55:42.071Z,9.5
2018-12-01T06:56:46.641Z,18.3
2018-12-01T06:57:42.019Z,21.3
2018-12-01T06:58:42.068Z,21.3
2018-12-01T06:59:42.305Z,30.3
2018-12-01T07:00:42.172Z,9.5
2018-12-01T07:01:42.064Z,45.3
2018-12-01T07:02:41.891Z,27.3
2018-12-01T07:03:44.220Z,27.3
2018-12-01T07:04:41.981Z,24.3
2018-12-01T07:05:41.876Z,21.3
2018-12-01T07:06:41.957Z,27.3
2018-12-01T07:07:42.895Z,18.3
2018-12-01T07:08:41.978Z,21.3
2018-12-01T07:09:42.017Z,18.3
2018-12-01T07:10:42.156Z,27.3
2018-12-01T07:11:42.009Z,18.3
2018-12-01T07:12:42.026Z,21.3
2018-12-01T07:13:41.991Z,30.3
2018-12-01T07:14:42.469Z,24.3
2018-12-01T07:15:42.088Z,18.3
2018-12-01T07:16:41.784Z,33.3
2018-12-01T07:17:41.781Z,12.4
2018-12-01T07:18:41.743Z,27.3
2018-12-01T07:19:41.739Z,24.3
2018-12-01T07:20:41.787Z,24.3
2018-12-01T07:21:41.763Z,30.3
2018-12-01T07:22:41.781Z,18.3
2018-12-01T07:23:41.845Z,18.3
2018-12-01T07:24:41.733Z,21.3
2018-12-01T07:25:41.796Z,18.3
2018-12-01T07:26:41.791Z,33.3
2018-12-01T07:27:41.837Z,21.3
2018-12-01T07:28:41.775Z,33.3
2018-12-01T07:29:41.749Z,27.3
2018-12-01T07:30:46.639Z,33.3
2018-12-01T07:31:41.858Z,12.4
2018-12-01T07:32:41.734Z,18.3
2018-12-01T07:33:41.804Z,30.3
2018-12-01T07:34:41.736Z,12.4
2018-12-01T07:35:41.727Z,33.3
2018-12-01T07:36:41.853Z,42.3
2018-12-01T07:37:45.836Z,15.4
2018-12-01T07:38:41.780Z,36.3
2018-12-01T07:39:41.778Z,21.3
2018-12-01T07:40:41.802Z,18.3
2018-12-01T07:41:41.733Z,21.3
2018-12-01T07:42:43.859Z,21.3
2018-12-01T07:43:41.727Z,21.3
2018-12-01T07:44:41.867Z,18.3
2018-12-01T07:45:41.730Z,9.5
2018-12-01T07:46:41.736Z,27.3
2018-12-01T07:47:42.797Z,18.3
2018-12-01T07:48:43.553Z,18.3
2018-12-01T07:49:43.641Z,30.3
2018-12-01T07:50:44.718Z,18.3
2018-12-01T07:51:41.827Z,21.3
2018-12-01T07:52:41.787Z,12.4
2018-12-01T07:53:41.801Z,18.3
2018-12-01T07:54:42.134Z,30.3
2018-12-01T07:55:41.770Z,27.3
2018-12-01T07:56:41.764Z,24.3
2018-12-01T07:57:41.724Z,24.3
2018-12-01T07:58:41.825Z,9.5
2018-12-01T07:59:43.280Z,12.4
2018-12-01T08:00:41.920Z,27.3
2018-12-01T08:01:41.804Z,15.4
2018-12-01T08:02:41.737Z,15.4
2018-12-01T08:03:41.773Z,27.3
2018-12-01T08:04:41.779Z,9.5
2018-12-01T08:05:42.432Z,12.4
2018-12-01T08:06:43.163Z,30.3
2018-12-01T08:07:41.763Z,15.4
2018-12-01T08:08:41.734Z,9.5
2018-12-01T08:10:00.260Z,18.3
2018-12-01T08:10:41.843Z,24.3
2018-12-01T08:11:41.711Z,12.4
2018-12-01T08:12:41.844Z,18.3
2018-12-01T08:13:41.724Z,36.3
2018-12-01T08:14:41.787Z,27.3
2018-12-01T08:15:41.891Z,12.4
2018-12-01T08:16:41.754Z,15.4
2018-12-01T08:17:41.766Z,24.3
2018-12-01T08:18:41.796Z,30.3
2018-12-01T08:19:46.071Z,33.3
2018-12-01T08:20:41.723Z,15.4
2018-12-01T08:21:50.777Z,30.3
2018-12-01T08:22:46.015Z,30.3
2018-12-01T08:23:44.865Z,21.3
2018-12-01T08:24:41.722Z,21.3
2018-12-01T08:25:42.763Z,18.3
2018-12-01T08:26:41.890Z,36.3
2018-12-01T08:27:41.780Z,15.4
2018-12-01T08:28:41.759Z,15.4
2018-12-01T08:29:41.742Z,24.3
2018-12-01T08:30:41.845Z,36.3
2018-12-01T08:31:41.792Z,9.5
2018-12-01T08:32:41.790Z,21.3
2018-12-01T08:33:41.786Z,27.3
2018-12-01T08:34:41.778Z,30.3
2018-12-01T08:35:41.794Z,18.3
2018-12-01T08:36:41.772Z,27.3
2018-12-01T08:37:41.757Z,12.4
2018-12-01T08:38:41.773Z,36.3
2018-12-01T08:39:41.956Z,30.3
2018-12-01T08:40:41.722Z,33.3
2018-12-01T08:41:41.781Z,15.4
2018-12-01T08:42:41.789Z,36.3
2018-12-01T08:43:41.771Z,15.4
2018-12-01T08:44:41.766Z,18.3
2018-12-01T08:45:41.942Z,21.3
2018-12-01T08:46:41.722Z,24.3
2018-12-01T08:47:41.765Z,27.3
2018-12-01T08:48:41.751Z,18.3
2018-12-01T08:49:41.751Z,6.6
2018-12-01T08:50:41.829Z,33.3
2018-12-01T08:51:41.692Z,12.4
2018-12-01T08:53:44.039Z,21.3
2018-12-01T08:54:44.155Z,18.3
2018-12-01T08:55:44.060Z,24.3
2018-12-01T08:56:44.010Z,27.3
2018-12-01T08:57:44.003Z,21.3
2018-12-01T08:58:44.103Z,24.3
2018-12-01T08:59:44.108Z,9.5
2018-12-01T09:00:44.183Z,12.4
2018-12-01T09:01:44.200Z,12.4
2018-12-01T09:02:44.003Z,24.3
2018-12-01T09:03:44.046Z,15.4
2018-12-01T09:04:44.046Z,18.3
2018-12-01T09:05:44.099Z,21.3
2018-12-01T09:06:44.044Z,18.3
2018-12-01T09:07:44.000Z,18.3
2018-12-01T09:08:44.018Z,21.3
2018-12-01T09:09:44.021Z,27.3
2018-12-01T09:10:44.047Z,24.3
2018-12-01T09:11:44.062Z,15.4
2018-12-01T09:12:44.083Z,24.3
2018-12-01T09:13:43.997Z,30.3
2018-12-01T09:14:44.056Z,39.3
2018-12-01T09:15:44.108Z,30.3
2018-12-01T09:16:44.098Z,33.3
2018-12-01T09:17:44.059Z,15.4
2018-12-01T09:18:44.067Z,27.3
2018-12-01T09:19:44.003Z,27.3
2018-12-01T09:20:44.114Z,27.3
2018-12-01T09:21:44.091Z,21.3
2018-12-01T09:22:44.150Z,12.4
2018-12-01T09:23:44.021Z,39.3
2018-12-01T09:24:44.147Z,24.3
2018-12-01T09:25:44.047Z,12.4
2018-12-01T09:26:44.019Z,12.4
2018-12-01T09:27:43.984Z,27.3
2018-12-01T09:28:44.060Z,27.3
2018-12-01T09:29:44.032Z,24.3
2018-12-01T09:30:44.082Z,24.3
2018-12-01T09:31:44.116Z,12.4
2018-12-01T09:32:44.052Z,27.3
2018-12-01T09:33:44.102Z,30.3
2018-12-01T09:34:44.127Z,42.3
2018-12-01T09:35:43.973Z,18.3
2018-12-01T09:36:44.033Z,48.3
2018-12-01T09:37:44.029Z,33.3
2018-12-01T09:38:44.298Z,24.3
2018-12-01T09:39:44.015Z,33.3
2018-12-01T09:40:43.980Z,30.3
2018-12-01T09:41:44.028Z,18.3
2018-12-01T09:42:44.022Z,15.4
2018-12-01T09:43:44.101Z,27.3
2018-12-01T09:44:43.968Z,15.4
2018-12-01T09:45:44.081Z,36.3
2018-12-01T09:46:43.994Z,39.3
2018-12-01T09:47:44.051Z,21.3
2018-12-01T09:48:44.085Z,27.3
2018-12-01T09:49:44.055Z,24.3
2018-12-01T09:50:44.105Z,54.3
2018-12-01T09:51:43.974Z,33.3
2018-12-01T09:52:44.024Z,30.3
2018-12-01T09:53:44.013Z,42.3
2018-12-01T09:54:44.025Z,48.3
2018-12-01T09:55:44.095Z,30.3
2018-12-01T09:56:44.063Z,24.3
2018-12-01T09:57:44.018Z,18.3
2018-12-01T09:58:44.032Z,24.3
2018-12-01T09:59:44.064Z,27.3
2018-12-01T10:00:44.105Z,39.3
2018-12-01T10:01:44.066Z,27.3
2018-12-01T10:02:43.982Z,30.3
2018-12-01T10:03:44.029Z,24.3
2018-12-01T10:04:44.029Z,21.3
2018-12-01T10:05:44.159Z,18.3
2018-12-01T10:06:44.036Z,18.3
2018-12-01T10:07:44.005Z,21.3
2018-12-01T10:08:43.973Z,18.3
2018-12-01T10:09:44.072Z,33.3
2018-12-01T10:10:44.101Z,21.3
2018-12-01T10:11:44.133Z,24.3
2018-12-01T10:12:44.101Z,18.3
2018-12-01T10:13:43.985Z,21.3
2018-12-01T10:14:44.094Z,24.3
2018-12-01T10:15:44.029Z,15.4
2018-12-01T10:16:44.247Z,21.3
2018-12-01T10:17:44.023Z,21.3
2018-12-01T10:18:43.984Z,18.3
2018-12-01T10:19:43.971Z,18.3
2018-12-01T10:20:44.024Z,27.3
2018-12-01T10:21:44.135Z,27.3
2018-12-01T10:22:44.056Z,18.3
2018-12-01T10:23:44.040Z,12.4
2018-12-01T10:24:43.965Z,24.3
2018-12-01T10:25:44.030Z,21.3
2018-12-01T10:26:44.105Z,21.3
2018-12-01T10:27:44.009Z,18.3
2018-12-01T10:28:44.194Z,27.3
2018-12-01T10:29:43.969Z,15.4
2018-12-01T10:30:44.025Z,18.3
2018-12-01T10:31:43.970Z,21.3
2018-12-01T10:32:44.008Z,9.5
2018-12-01T10:33:44.015Z,18.3
2018-12-01T10:34:44.032Z,12.4
2018-12-01T10:35:43.967Z,9.5
2018-12-01T10:36:44.098Z,18.3
2018-12-01T10:37:44.009Z,18.3
2018-12-01T10:38:44.027Z,21.3
2018-12-01T10:39:44.007Z,3.9
2018-12-01T10:40:43.974Z,9.5
2018-12-01T10:41:44.149Z,18.3
2018-12-01T10:42:44.033Z,15.4
2018-12-01T10:43:44.014Z,3.9
2018-12-01T10:44:44.014Z,12.4
2018-12-01T10:45:44.018Z,21.3
2018-12-01T10:46:43.952Z,12.4
2018-12-01T10:47:44.019Z,12.4
2018-12-01T10:48:44.060Z,24.3
2018-12-01T10:49:43.967Z,39.3
2018-12-01T10:50:44.028Z,24.3
2018-12-01T10:51:44.001Z,30.3
2018-12-01T10:52:44.012Z,33.3
2018-12-01T10:53:44.061Z,6.6
2018-12-01T10:54:44.058Z,24.3
2018-12-01T10:55:44.143Z,36.3
2018-12-01T10:56:43.992Z,54.3
2018-12-01T10:57:43.988Z,12.4
2018-12-01T10:58:44.021Z,39.3
2018-12-01T10:59:44.010Z,27.3
2018-12-01T11:00:44.086Z,18.3
2018-12-01T11:01:44.013Z,18.3
2018-12-01T11:02:43.966Z,27.3
2018-12-01T11:03:44.019Z,33.3
2018-12-01T11:04:44.049Z,24.3
2018-12-01T11:05:44.108Z,3.9
2018-12-01T11:06:43.993Z,9.5
2018-12-01T11:07:43.991Z,6.6
2018-12-01T11:08:45.949Z,27.3
2018-12-01T11:09:44.210Z,33.3
2018-12-01T11:10:44.076Z,30.3
2018-12-01T11:11:44.062Z,15.4
2018-12-01T11:12:44.032Z,24.3
2018-12-01T11:13:43.968Z,18.3
2018-12-01T11:14:43.981Z,45.3
2018-12-01T11:15:44.079Z,21.3
2018-12-01T11:16:44.308Z,30.3
2018-12-01T11:17:44.035Z,21.3
2018-12-01T11:18:44.063Z,21.3
2018-12-01T11:19:44.038Z,42.3
2018-12-01T11:20:44.029Z,6.6
2018-12-01T11:21:44.032Z,15.4
2018-12-01T11:22:44.066Z,12.4
2018-12-01T11:23:44.061Z,18.3
2018-12-01T11:24:43.996Z,39.3
2018-12-01T11:25:44.033Z,24.3
2018-12-01T11:26:44.076Z,42.3
2018-12-01T11:27:44.002Z,21.3
2018-12-01T11:28:44.101Z,21.3
2018-12-01T11:29:43.965Z,18.3
2018-12-01T11:30:44.089Z,15.4
2018-12-01T11:31:44.065Z,12.4
2018-12-01T11:32:44.498Z,30.3
2018-12-01T11:33:43.996Z,12.4
2018-12-01T11:34:43.989Z,9.5
2018-12-01T11:35:43.957Z,18.3
2018-12-01T11:36:44.028Z,9.5
2018-12-01T11:37:44.102Z,21.3
2018-12-01T11:38:44.076Z,15.4
2018-12-01T11:39:44.003Z,12.4
2018-12-01T11:40:43.964Z,21.3
2018-12-01T11:41:44.009Z,21.3
2018-12-01T11:42:44.058Z,15.4
2018-12-01T11:43:44.122Z,21.3
2018-12-01T11:44:43.997Z,42.3
2018-12-01T11:45:44.016Z,21.3
2018-12-01T11:46:44.017Z,30.3
2018-12-01T11:47:43.969Z,24.3
2018-12-01T11:48:44.076Z,15.4
2018-12-01T11:49:44.152Z,21.3
2018-12-01T11:50:43.954Z,12.4
2018-12-01T11:51:43.995Z,15.4
2018-12-01T11:52:43.995Z,9.5
2018-12-01T11:53:44.293Z,15.4
2018-12-01T11:54:44.141Z,18.3
2018-12-01T11:55:44.005Z,3.9
2018-12-01T11:56:43.967Z,27.3
2018-12-01T11:57:43.938Z,27.3
2018-12-01T11:58:44.002Z,30.3
2018-12-01T11:59:44.069Z,24.3
2018-12-01T12:00:43.989Z,9.5
2018-12-01T12:01:44.819Z,24.3
2018-12-01T12:02:43.965Z,27.3
2018-12-01T12:03:43.981Z,6.6
2018-12-01T12:04:43.985Z,18.3
2018-12-01T12:05:44.133Z,45.3
2018-12-01T12:06:44.005Z,30.3
2018-12-01T12:07:43.958Z,45.3
2018-12-01T12:08:43.982Z,36.3
2018-12-01T12:09:43.999Z,30.3
2018-12-01T12:10:44.085Z,33.3
2018-12-01T12:11:44.007Z,24.3
2018-12-01T12:12:43.987Z,24.3
2018-12-01T12:13:43.949Z,18.3
2018-12-01T12:14:44.002Z,33.3
2018-12-01T12:15:44.069Z,45.3
2018-12-01T12:16:43.994Z,12.4
2018-12-01T12:17:44.193Z,42.3
2018-12-01T12:18:44.059Z,27.3
2018-12-01T12:19:44.010Z,21.3
2018-12-01T12:20:43.984Z,42.3
2018-12-01T12:21:44.003Z,33.3
2018-12-01T12:22:43.989Z,21.3
2018-12-01T12:23:43.942Z,15.4
2018-12-01T12:24:43.985Z,18.3
2018-12-01T12:25:44.548Z,18.3
2018-12-01T12:26:45.254Z,39.3
2018-12-01T12:27:43.990Z,27.3
2018-12-01T12:28:44.019Z,18.3
2018-12-01T12:29:44.083Z,24.3
2018-12-01T12:30:43.977Z,27.3
2018-12-01T12:31:47.717Z,27.3
2018-12-01T12:32:44.056Z,12.4
2018-12-01T12:33:43.937Z,39.3
2018-12-01T12:34:44.024Z,18.3
2018-12-01T12:35:44.104Z,39.3
2018-12-01T12:36:43.987Z,24.3
2018-12-01T12:37:44.088Z,30.3
2018-12-01T12:38:43.993Z,15.4
2018-12-01T12:39:43.980Z,27.3
2018-12-01T12:40:44.099Z,36.3
2018-12-01T12:41:44.004Z,12.4
2018-12-01T12:42:44.181Z,39.3
2018-12-01T12:43:44.083Z,24.3
2018-12-01T12:44:43.976Z,27.3
2018-12-01T12:45:44.070Z,15.4
2018-12-01T12:46:44.092Z,15.4
2018-12-01T12:47:44.059Z,27.3
2018-12-01T12:48:44.052Z,15.4
2018-12-01T12:49:44.105Z,30.3
2018-12-01T12:50:44.011Z,42.3
2018-12-01T12:51:44.018Z,24.3
2018-12-01T12:52:44.666Z,45.3
2018-12-01T12:53:44.097Z,48.3
2018-12-01T12:54:44.072Z,21.3
2018-12-01T12:55:44.003Z,18.3
2018-12-01T12:56:43.968Z,15.4
2018-12-01T12:57:43.960Z,42.3
2018-12-01T12:58:44.075Z,48.3
2018-12-01T12:59:43.985Z,27.3
2018-12-01T13:00:43.980Z,33.3
2018-12-01T13:01:46.033Z,33.3
2018-12-01T13:02:44.023Z,27.3
2018-12-01T13:03:43.985Z,27.3
2018-12-01T13:04:44.115Z,18.3
2018-12-01T13:05:47.094Z,39.3
2018-12-01T13:06:43.954Z,36.3
2018-12-01T13:07:43.960Z,33.3
2018-12-01T13:08:43.991Z,24.3
2018-12-01T13:09:45.053Z,36.3
2018-12-01T13:10:44.343Z,9.5
2018-12-01T13:11:44.115Z,27.3
2018-12-01T13:12:43.992Z,33.3
2018-12-01T13:13:43.998Z,27.3
2018-12-01T13:14:45.573Z,21.3
2018-12-01T13:15:46.261Z,24.3
2018-12-01T13:16:44.447Z,33.3
2018-12-01T13:17:44.123Z,12.4
2018-12-01T13:18:45.822Z,57.3
2018-12-01T13:19:43.990Z,36.3
2018-12-01T13:20:43.995Z,36.3
2018-12-01T13:21:43.948Z,30.3
2018-12-01T13:22:43.968Z,51.3
2018-12-01T13:23:44.636Z,51.3
2018-12-01T13:24:43.946Z,45.3
2018-12-01T13:25:43.987Z,45.3
2018-12-01T13:26:45.191Z,33.3
2018-12-01T13:27:44.016Z,42.3
2018-12-01T13:28:44.540Z,21.3
2018-12-01T13:29:45.356Z,36.3
2018-12-01T13:30:43.964Z,39.3
2018-12-01T13:31:45.046Z,15.4
2018-12-01T13:32:46.359Z,30.3
2018-12-01T13:33:43.981Z,27.3
2018-12-01T13:34:43.916Z,24.3
2018-12-01T13:35:44.013Z,30.3
2018-12-01T13:36:44.131Z,18.3